createdAt,value
2023-03-10T00:00:24.482Z,98.44
2023-03-10T00:02:52.135Z,100.00
2023-03-10T00:05:20.688Z,100.00
2023-03-10T00:07:50.242Z,100.00
2023-03-10T00:10:18.660Z,100.00
2023-03-10T00:12:46.853Z,100.00
2023-03-10T00:15:14.714Z,100.00
2023-03-10T00:17:43.754Z,100.00
2023-03-10T00:20:13.375Z,100.00
2023-03-10T00:22:41.738Z,100.00
2023-03-10T00:25:11.429Z,100.00
2023-03-10T00:27:39.372Z,100.00
2023-03-10T00:30:08.474Z,100.00
2023-03-10T00:32:36.703Z,100.00
2023-03-10T00:35:07.652Z,100.00
2023-03-10T00:37:38.005Z,100.00
2023-03-10T00:40:09.321Z,100.00
2023-03-10T00:42:37.042Z,100.00
2023-03-10T00:45:05.334Z,100.00
2023-03-10T00:47:33.234Z,100.00
2023-03-10T00:50:00.924Z,100.00
2023-03-10T00:52:33.100Z,100.00
2023-03-10T00:55:00.965Z,100.00
2023-03-10T00:57:28.800Z,100.00
2023-03-10T00:59:56.643Z,100.00
2023-03-10T01:02:24.332Z,100.00
2023-03-10T01:04:52.047Z,100.00
2023-03-10T01:07:19.976Z,100.00
2023-03-10T01:09:48.986Z,100.00
2023-03-10T01:12:19.034Z,100.00
2023-03-10T01:14:46.920Z,100.00
2023-03-10T01:17:16.343Z,100.00
2023-03-10T01:19:44.239Z,100.00
2023-03-10T01:22:11.977Z,100.00
2023-03-10T01:24:39.676Z,100.00
2023-03-10T01:27:08.774Z,100.00
2023-03-10T01:29:36.469Z,100.00
2023-03-10T01:32:04.324Z,100.00
2023-03-10T01:34:32.211Z,100.00
2023-03-10T01:37:00.023Z,100.00
2023-03-10T01:39:28.280Z,100.00
2023-03-10T01:41:55.940Z,100.00
2023-03-10T01:44:24.952Z,100.00
2023-03-10T01:46:55.888Z,100.00
2023-03-10T01:49:39.217Z,100.00
2023-03-10T01:52:13.400Z,100.00
2023-03-10T01:54:50.128Z,100.00
2023-03-10T01:57:21.901Z,100.00
2023-03-10T01:59:51.774Z,100.00
2023-03-10T02:02:19.939Z,100.00
2023-03-10T02:04:49.462Z,100.00
2023-03-10T02:07:25.766Z,100.00
2023-03-10T02:09:56.553Z,100.00
2023-03-10T02:12:24.756Z,100.00
2023-03-10T02:14:55.419Z,100.00
2023-03-10T02:17:25.153Z,100.00
2023-03-10T02:20:06.365Z,100.00
2023-03-10T02:22:34.278Z,100.00
2023-03-10T02:25:08.511Z,100.00
2023-03-10T02:27:40.037Z,100.00
2023-03-10T02:30:12.217Z,100.00
2023-03-10T02:32:43.949Z,100.00
2023-03-10T02:35:12.474Z,100.00
2023-03-10T02:37:50.718Z,100.00
2023-03-10T02:40:32.387Z,100.00
2023-03-10T02:43:06.658Z,100.00
2023-03-10T02:45:38.756Z,100.00
2023-03-10T02:48:08.405Z,100.00
2023-03-10T02:50:40.629Z,100.00
2023-03-10T02:53:13.037Z,100.00
2023-03-10T02:55:41.061Z,100.00
2023-03-10T02:58:10.557Z,100.00
2023-03-10T03:00:39.047Z,100.00
2023-03-10T03:03:09.746Z,100.00
2023-03-10T03:05:38.359Z,100.00
2023-03-10T03:08:07.781Z,100.00
2023-03-10T03:10:36.895Z,100.00
2023-03-10T03:13:06.290Z,100.00
2023-03-10T03:15:35.802Z,100.00
2023-03-10T03:18:05.156Z,100.00
2023-03-10T03:20:36.643Z,100.00
2023-03-10T03:23:05.446Z,100.00
2023-03-10T03:25:37.005Z,100.00
2023-03-10T03:28:06.310Z,100.00
2023-03-10T03:30:36.072Z,100.00
2023-03-10T03:33:06.878Z,100.00
2023-03-10T03:35:38.351Z,100.00
2023-03-10T03:38:08.423Z,100.00
2023-03-10T03:40:38.336Z,100.00
2023-03-10T03:43:07.088Z,100.00
2023-03-10T03:45:37.219Z,100.00
2023-03-10T03:48:05.739Z,100.00
2023-03-10T03:50:36.280Z,100.00
2023-03-10T03:53:10.351Z,100.00
2023-03-10T03:55:39.304Z,100.00
2023-03-10T03:58:07.189Z,100.00
2023-03-10T04:00:35.585Z,100.00
2023-03-10T04:03:08.337Z,100.00
2023-03-10T04:05:36.639Z,100.00
2023-03-10T04:08:05.222Z,100.00
2023-03-10T04:10:32.999Z,100.00
2023-03-10T04:13:01.716Z,100.00
2023-03-10T04:15:31.442Z,100.00
2023-03-10T04:18:00.452Z,100.00
2023-03-10T04:20:30.258Z,100.00
2023-03-10T04:22:58.131Z,100.00
2023-03-10T04:25:31.440Z,100.00
2023-03-10T04:27:59.199Z,100.00
2023-03-10T04:30:29.586Z,100.00
2023-03-10T04:33:00.078Z,100.00
2023-03-10T04:35:31.674Z,100.00
2023-03-10T04:38:00.479Z,100.00
2023-03-10T04:40:28.883Z,100.00
2023-03-10T04:42:56.926Z,100.00
2023-03-10T04:45:24.709Z,100.00
2023-03-10T04:47:54.052Z,100.00
2023-03-10T04:50:22.042Z,100.00
2023-03-10T04:52:52.995Z,100.00
2023-03-10T04:55:25.164Z,100.00
2023-03-10T04:57:52.905Z,100.00
2023-03-10T05:00:21.006Z,100.00
2023-03-10T05:02:49.288Z,100.00
2023-03-10T05:05:17.121Z,100.00
2023-03-10T05:07:46.788Z,100.00
2023-03-10T05:10:15.962Z,100.00
2023-03-10T05:12:43.596Z,100.00
2023-03-10T05:15:12.998Z,100.00
2023-03-10T05:17:40.686Z,100.00
2023-03-10T05:20:10.639Z,100.00
2023-03-10T05:22:39.418Z,100.00
2023-03-10T05:25:11.514Z,100.00
2023-03-10T05:27:42.228Z,100.00
2023-03-10T05:30:15.430Z,100.00
2023-03-10T05:32:46.265Z,100.00
2023-03-10T05:35:15.339Z,100.00
2023-03-10T05:37:45.657Z,100.00
2023-03-10T05:40:15.552Z,100.00
2023-03-10T05:42:45.351Z,100.00
2023-03-10T05:45:13.459Z,100.00
2023-03-10T05:47:41.614Z,100.00
2023-03-10T05:50:11.356Z,100.00
2023-03-10T05:52:40.271Z,100.00
2023-03-10T05:55:12.264Z,100.00
2023-03-10T05:57:40.201Z,100.00
2023-03-10T06:00:11.817Z,100.00
2023-03-10T06:02:46.312Z,100.00
2023-03-10T06:05:14.144Z,100.00
2023-03-10T06:07:42.315Z,100.00
2023-03-10T06:10:11.401Z,100.00
2023-03-10T06:12:39.352Z,100.00
2023-03-10T06:15:09.639Z,100.00
2023-03-10T06:17:37.280Z,100.00
2023-03-10T06:20:05.670Z,100.00
2023-03-10T06:22:33.395Z,100.00
2023-03-10T06:25:01.240Z,100.00
2023-03-10T06:27:30.651Z,100.00
2023-03-10T06:29:58.373Z,100.00
2023-03-10T06:32:27.674Z,100.00
2023-03-10T06:34:55.392Z,100.00
2023-03-10T06:37:23.198Z,100.00
2023-03-10T06:39:50.920Z,100.00
2023-03-10T06:42:18.570Z,100.00
2023-03-10T06:44:48.816Z,100.00
2023-03-10T06:47:16.902Z,100.00
2023-03-10T06:49:45.875Z,100.00
2023-03-10T06:52:13.496Z,100.00
2023-03-10T06:54:41.621Z,100.00
2023-03-10T06:57:09.356Z,100.00
2023-03-10T06:59:37.158Z,100.00
2023-03-10T07:02:04.978Z,100.00
2023-03-10T07:04:33.066Z,100.00
2023-03-10T07:07:02.092Z,100.00
2023-03-10T07:09:29.855Z,100.00
2023-03-10T07:11:57.590Z,100.00
2023-03-10T07:14:25.239Z,100.00
2023-03-10T07:16:52.953Z,100.00
2023-03-10T07:19:20.905Z,100.00
2023-03-10T07:21:48.952Z,100.00
2023-03-10T07:24:19.594Z,100.00
2023-03-10T07:26:47.307Z,100.00
2023-03-10T07:29:14.921Z,100.00
2023-03-10T07:31:44.945Z,100.00
2023-03-10T07:34:12.697Z,100.00
2023-03-10T07:36:40.360Z,100.00
2023-03-10T07:39:08.114Z,100.00
2023-03-10T07:41:37.085Z,100.00
2023-03-10T07:44:04.764Z,100.00
2023-03-10T07:46:32.480Z,100.00
2023-03-10T07:49:04.092Z,100.00
2023-03-10T07:51:31.799Z,100.00
2023-03-10T07:53:59.724Z,100.00
2023-03-10T07:56:28.112Z,100.00
2023-03-10T07:58:57.068Z,100.00
2023-03-10T08:01:24.848Z,100.00
2023-03-10T08:03:52.797Z,100.00
2023-03-10T08:06:23.320Z,100.00
2023-03-10T08:08:51.436Z,100.00
2023-03-10T08:11:20.175Z,100.00
2023-03-10T08:13:48.769Z,100.00
2023-03-10T08:16:20.419Z,100.00
2023-03-10T08:18:49.918Z,100.00
2023-03-10T08:21:17.892Z,100.00
2023-03-10T08:23:45.662Z,100.00
2023-03-10T08:26:15.288Z,100.00
2023-03-10T08:28:43.272Z,100.00
2023-03-10T08:31:12.455Z,100.00
2023-03-10T08:33:42.945Z,100.00
2023-03-10T08:36:13.638Z,100.00
2023-03-10T08:38:42.234Z,100.00
2023-03-10T08:41:14.898Z,100.00
2023-03-10T08:43:43.188Z,100.00
2023-03-10T08:46:11.923Z,100.00
2023-03-10T08:48:42.905Z,100.00
2023-03-10T08:51:15.111Z,100.00
2023-03-10T08:53:46.576Z,100.00
2023-03-10T08:56:14.925Z,100.00
2023-03-10T08:58:42.838Z,100.00
2023-03-10T09:01:11.632Z,100.00
2023-03-10T09:03:41.827Z,100.00
2023-03-10T09:06:10.389Z,100.00
2023-03-10T09:08:39.633Z,100.00
2023-03-10T09:11:07.274Z,100.00
2023-03-10T09:13:35.001Z,100.00
2023-03-10T09:16:02.823Z,100.00
2023-03-10T09:18:30.573Z,100.00
2023-03-10T09:20:59.512Z,100.00
2023-03-10T09:23:27.220Z,100.00
2023-03-10T09:25:54.983Z,100.00
2023-03-10T09:28:22.667Z,100.00
2023-03-10T09:30:54.513Z,100.00
2023-03-10T09:33:23.327Z,100.00
2023-03-10T09:36:05.379Z,100.00
2023-03-10T09:38:35.547Z,100.00
2023-03-10T09:41:16.291Z,100.00
2023-03-10T09:43:50.681Z,100.00
2023-03-10T09:46:23.948Z,100.00
2023-03-10T09:48:59.263Z,100.00
2023-03-10T09:51:29.473Z,100.00
2023-03-10T09:54:18.514Z,100.00
2023-03-10T09:56:46.122Z,100.00
2023-03-10T09:59:17.956Z,100.00
2023-03-10T10:01:48.996Z,100.00
2023-03-10T10:04:20.221Z,100.00
2023-03-10T10:06:49.403Z,100.00
2023-03-10T10:09:28.882Z,100.00
2023-03-10T10:11:56.955Z,100.00
2023-03-10T10:14:30.042Z,100.00
2023-03-10T10:17:09.384Z,100.00
2023-03-10T10:19:39.763Z,100.00
2023-03-10T10:22:14.652Z,100.00
2023-03-10T10:24:59.717Z,100.00
2023-03-10T10:27:27.389Z,100.00
2023-03-10T10:29:55.011Z,100.00
2023-03-10T10:32:22.800Z,100.00
2023-03-10T10:34:50.480Z,100.00
2023-03-10T10:37:29.751Z,100.00
2023-03-10T10:40:01.025Z,100.00
2023-03-10T10:42:30.693Z,100.00
2023-03-10T10:44:59.679Z,100.00
2023-03-10T10:47:30.837Z,100.00
2023-03-10T10:50:18.940Z,100.00
2023-03-10T10:52:48.831Z,100.00
2023-03-10T10:55:29.845Z,100.00
2023-03-10T10:58:01.680Z,100.00
2023-03-10T11:00:31.837Z,100.00
2023-03-10T11:02:59.944Z,100.00
2023-03-10T11:05:35.838Z,100.00
2023-03-10T11:08:18.749Z,100.00
2023-03-10T11:10:54.630Z,100.00
2023-03-10T11:13:26.139Z,100.00
2023-03-10T11:16:01.466Z,100.00
2023-03-10T11:18:32.944Z,100.00
2023-03-10T11:21:09.902Z,100.00
2023-03-10T11:23:44.741Z,100.00
2023-03-10T11:26:22.176Z,100.00
2023-03-10T11:28:54.835Z,100.00
2023-03-10T11:31:34.314Z,100.00
2023-03-10T11:34:15.475Z,100.00
2023-03-10T11:36:55.896Z,100.00
2023-03-10T11:39:36.180Z,100.00
2023-03-10T11:42:14.980Z,100.00
2023-03-10T11:44:49.866Z,100.00
2023-03-10T11:47:25.769Z,100.00
2023-03-10T11:50:04.106Z,100.00
2023-03-10T11:52:33.994Z,100.00
2023-03-10T11:55:06.609Z,100.00
2023-03-10T11:57:40.636Z,100.00
2023-03-10T12:00:19.333Z,100.00
2023-03-10T12:02:55.702Z,100.00
2023-03-10T12:05:25.876Z,100.00
2023-03-10T12:07:56.466Z,100.00
2023-03-10T12:10:25.518Z,100.00
2023-03-10T12:12:55.229Z,100.00
2023-03-10T12:15:25.292Z,100.00
2023-03-10T12:17:54.455Z,100.00
2023-03-10T12:20:28.658Z,100.00
2023-03-10T12:22:57.715Z,100.00
2023-03-10T12:25:46.069Z,100.00
2023-03-10T12:28:24.403Z,100.00
2023-03-10T12:30:56.383Z,100.00
2023-03-10T12:34:01.775Z,100.00
2023-03-10T12:36:39.378Z,100.00
2023-03-10T12:39:38.901Z,100.00
2023-03-10T12:42:22.096Z,100.00
2023-03-10T12:44:56.540Z,100.00
2023-03-10T12:47:32.691Z,100.00
2023-03-10T12:50:07.030Z,100.00
2023-03-10T12:52:48.724Z,100.00
2023-03-10T12:55:21.004Z,100.00
2023-03-10T12:58:01.384Z,100.00
2023-03-10T13:00:40.448Z,100.00
2023-03-10T13:03:19.350Z,100.00
2023-03-10T13:06:00.823Z,100.00
2023-03-10T13:08:35.980Z,100.00
2023-03-10T13:11:04.700Z,100.00
2023-03-10T13:13:35.730Z,100.00
2023-03-10T13:16:07.232Z,100.00
2023-03-10T13:18:36.304Z,100.00
2023-03-10T13:21:04.037Z,100.00
2023-03-10T13:23:34.339Z,100.00
2023-03-10T13:26:06.796Z,100.00
2023-03-10T13:28:35.917Z,100.00
2023-03-10T13:31:21.216Z,100.00
2023-03-10T13:33:53.606Z,100.00
2023-03-10T13:36:23.917Z,100.00
2023-03-10T13:38:53.052Z,100.00
2023-03-10T13:41:21.122Z,100.00
2023-03-10T13:43:51.613Z,100.00
2023-03-10T13:46:25.482Z,100.00
2023-03-10T13:48:54.086Z,100.00
2023-03-10T13:51:23.980Z,100.00
2023-03-10T13:53:54.857Z,100.00
2023-03-10T13:56:25.650Z,100.00
2023-03-10T13:58:58.049Z,100.00
2023-03-10T14:01:30.332Z,100.00
2023-03-10T14:04:00.071Z,100.00
2023-03-10T14:06:30.049Z,100.00
2023-03-10T14:08:57.724Z,100.00
2023-03-10T14:11:33.368Z,100.00
2023-03-10T14:14:01.901Z,100.00
2023-03-10T14:16:51.364Z,100.00
2023-03-10T14:19:38.211Z,100.00
2023-03-10T14:22:22.552Z,100.00
2023-03-10T14:24:50.517Z,100.00
2023-03-10T14:27:18.607Z,100.00
2023-03-10T14:29:50.289Z,100.00
2023-03-10T14:32:19.456Z,100.00
2023-03-10T14:34:48.293Z,100.00
2023-03-10T14:37:16.378Z,100.00
2023-03-10T14:39:44.067Z,100.00
2023-03-10T14:42:20.949Z,100.00
2023-03-10T14:44:50.246Z,100.00
2023-03-10T14:47:19.438Z,100.00
2023-03-10T14:49:47.298Z,100.00
2023-03-10T14:52:16.928Z,100.00
2023-03-10T14:54:44.902Z,100.00
2023-03-10T14:57:15.898Z,100.00
2023-03-10T14:59:43.609Z,100.00
2023-03-10T15:02:19.762Z,100.00
2023-03-10T15:04:49.437Z,100.00
2023-03-10T15:07:17.641Z,100.00
2023-03-10T15:09:45.391Z,100.00
2023-03-10T15:12:15.013Z,100.00
2023-03-10T15:14:52.339Z,100.00
2023-03-10T15:17:20.002Z,100.00
2023-03-10T15:19:49.023Z,100.00
2023-03-10T15:22:16.715Z,100.00
2023-03-10T15:24:44.354Z,100.00
2023-03-10T15:27:13.169Z,100.00
2023-03-10T15:29:40.893Z,100.00
2023-03-10T15:32:08.827Z,100.00
2023-03-10T15:34:36.432Z,100.00
2023-03-10T15:37:07.318Z,100.00
2023-03-10T15:39:37.259Z,100.00
2023-03-10T15:42:05.163Z,100.00
2023-03-10T15:44:32.836Z,100.00
2023-03-10T15:47:00.564Z,100.00
2023-03-10T15:49:28.311Z,100.00
2023-03-10T15:51:56.086Z,100.00
2023-03-10T15:54:25.470Z,100.00
2023-03-10T15:56:53.169Z,100.00
2023-03-10T15:59:20.976Z,100.00
2023-03-10T16:01:48.694Z,100.00
2023-03-10T16:04:16.460Z,100.00
2023-03-10T16:06:44.254Z,100.00
2023-03-10T16:09:11.966Z,100.00
2023-03-10T16:11:41.178Z,100.00
2023-03-10T16:14:08.891Z,100.00
2023-03-10T16:16:36.688Z,100.00
2023-03-10T16:19:04.485Z,100.00
2023-03-10T16:21:32.523Z,100.00
2023-03-10T16:24:00.173Z,100.00
2023-03-10T16:26:27.906Z,100.00
2023-03-10T16:28:56.876Z,100.00
2023-03-10T16:31:26.955Z,100.00
2023-03-10T16:33:55.959Z,100.00
2023-03-10T16:36:25.187Z,100.00
2023-03-10T16:38:53.692Z,100.00
2023-03-10T16:41:23.171Z,100.00
2023-03-10T16:43:51.081Z,100.00
2023-03-10T16:46:25.438Z,100.00
2023-03-10T16:48:54.702Z,100.00
2023-03-10T16:51:26.550Z,99.65
2023-03-10T16:53:55.878Z,100.00
2023-03-10T16:56:25.065Z,100.00
2023-03-10T16:58:53.421Z,100.00
2023-03-10T17:01:23.876Z,100.00
2023-03-10T17:03:51.947Z,97.97
2023-03-10T17:06:22.678Z,98.80
2023-03-10T17:08:51.220Z,96.53
2023-03-10T17:11:20.717Z,100.00
2023-03-10T17:13:49.670Z,100.00
2023-03-10T17:16:18.871Z,96.54
2023-03-10T17:18:48.119Z,95.24
2023-03-10T17:21:18.174Z,95.69
2023-03-10T17:23:46.662Z,96.15
2023-03-10T17:26:15.131Z,97.43
2023-03-10T17:28:43.550Z,95.13
2023-03-10T17:31:13.616Z,93.98
2023-03-10T17:33:42.613Z,95.16
2023-03-10T17:36:14.782Z,95.42
2023-03-10T17:38:43.134Z,92.95
2023-03-10T17:41:12.692Z,96.53
2023-03-10T17:43:41.084Z,95.16
2023-03-10T17:46:12.087Z,98.16
2023-03-10T17:48:39.906Z,96.40
2023-03-10T17:51:08.057Z,97.57
2023-03-10T17:53:37.292Z,97.08
2023-03-10T17:56:05.859Z,99.03
2023-03-10T17:58:33.791Z,97.49
2023-03-10T18:01:07.971Z,96.47
2023-03-10T18:03:36.442Z,97.46
2023-03-10T18:06:05.011Z,95.93
2023-03-10T18:08:32.683Z,96.17
2023-03-10T18:11:02.603Z,96.55
2023-03-10T18:13:30.707Z,96.89
2023-03-10T18:15:59.037Z,96.81
2023-03-10T18:18:27.115Z,97.13
2023-03-10T18:20:54.771Z,96.05
2023-03-10T18:23:23.157Z,97.52
2023-03-10T18:25:51.721Z,95.25
2023-03-10T18:28:23.025Z,95.18
2023-03-10T18:30:52.990Z,93.33
2023-03-10T18:33:20.764Z,91.95
2023-03-10T18:35:48.653Z,93.71
2023-03-10T18:38:18.368Z,93.73
2023-03-10T18:40:46.035Z,94.55
2023-03-10T18:43:13.865Z,96.14
2023-03-10T18:45:44.435Z,96.19
2023-03-10T18:48:12.077Z,94.54
2023-03-10T18:50:39.698Z,95.32
2023-03-10T18:53:07.390Z,99.13
2023-03-10T18:55:35.057Z,100.00
2023-03-10T18:58:02.703Z,100.00
2023-03-10T19:00:30.485Z,100.00
2023-03-10T19:02:59.459Z,100.00
2023-03-10T19:05:27.952Z,100.00
2023-03-10T19:07:55.907Z,100.00
2023-03-10T19:10:23.887Z,100.00
2023-03-10T19:12:51.671Z,100.00
2023-03-10T19:15:19.430Z,100.00
2023-03-10T19:17:47.250Z,100.00
2023-03-10T19:20:18.192Z,100.00
2023-03-10T19:22:49.492Z,100.00
2023-03-10T19:25:17.643Z,100.00
2023-03-10T19:27:46.012Z,100.00
2023-03-10T19:30:17.124Z,100.00
2023-03-10T19:32:45.626Z,100.00
2023-03-10T19:35:14.057Z,100.00
2023-03-10T19:37:43.776Z,100.00
2023-03-10T19:40:15.663Z,100.00
2023-03-10T19:42:43.914Z,100.00
2023-03-10T19:45:12.990Z,100.00
2023-03-10T19:47:41.501Z,100.00
2023-03-10T19:50:11.019Z,100.00
2023-03-10T19:52:38.940Z,100.00
2023-03-10T19:55:09.408Z,100.00
2023-03-10T19:57:37.721Z,100.00
2023-03-10T20:00:07.616Z,100.00
2023-03-10T20:02:35.467Z,100.00
2023-03-10T20:05:03.480Z,100.00
2023-03-10T20:07:31.116Z,100.00
2023-03-10T20:09:58.757Z,100.00
2023-03-10T20:12:27.764Z,100.00
2023-03-10T20:14:58.654Z,100.00
2023-03-10T20:17:26.380Z,95.46
2023-03-10T20:19:54.035Z,97.04
2023-03-10T20:22:21.704Z,99.40
2023-03-10T20:24:49.320Z,96.88
2023-03-10T20:27:16.982Z,100.00
2023-03-10T20:29:46.137Z,97.48
2023-03-10T20:32:13.836Z,98.82
2023-03-10T20:34:41.530Z,100.00
2023-03-10T20:37:09.198Z,100.00
2023-03-10T20:39:37.386Z,98.21
2023-03-10T20:42:05.048Z,98.42
2023-03-10T20:44:33.197Z,97.80
2023-03-10T20:47:02.213Z,94.18
2023-03-10T20:49:30.331Z,94.56
2023-03-10T20:51:58.041Z,96.03
2023-03-10T20:54:25.833Z,96.50
2023-03-10T20:56:53.593Z,94.65
2023-03-10T20:59:21.229Z,93.45
2023-03-10T21:01:48.898Z,93.26
2023-03-10T21:04:19.858Z,93.22
2023-03-10T21:06:47.855Z,93.68
2023-03-10T21:09:16.389Z,95.06
2023-03-10T21:11:44.468Z,94.58
2023-03-10T21:14:12.146Z,93.99
2023-03-10T21:16:41.995Z,93.21
2023-03-10T21:19:10.215Z,91.32
2023-03-10T21:21:39.207Z,94.13
2023-03-10T21:24:07.126Z,92.61
2023-03-10T21:26:35.810Z,93.14
2023-03-10T21:29:04.282Z,92.23
2023-03-10T21:31:32.187Z,93.54
2023-03-10T21:33:59.834Z,90.25
2023-03-10T21:36:27.788Z,91.70
2023-03-10T21:38:56.828Z,90.03
2023-03-10T21:41:26.811Z,90.65
2023-03-10T21:43:55.645Z,92.57
2023-03-10T21:46:24.684Z,91.34
2023-03-10T21:48:53.216Z,90.38
2023-03-10T21:51:23.037Z,92.22
2023-03-10T21:53:51.703Z,92.89
2023-03-10T21:56:22.526Z,92.99
2023-03-10T21:58:50.438Z,93.04
2023-03-10T22:01:19.488Z,89.71
2023-03-10T22:03:47.405Z,91.02
2023-03-10T22:06:15.088Z,89.82
2023-03-10T22:08:43.075Z,91.40
2023-03-10T22:11:10.937Z,92.65
2023-03-10T22:13:40.315Z,91.17
2023-03-10T22:16:10.554Z,91.70
2023-03-10T22:18:38.630Z,91.69
2023-03-10T22:21:06.532Z,91.42
2023-03-10T22:23:34.267Z,93.98
2023-03-10T22:26:02.268Z,91.73
2023-03-10T22:28:29.883Z,90.65
2023-03-10T22:30:58.858Z,88.37
2023-03-10T22:33:26.643Z,90.83
2023-03-10T22:35:54.346Z,90.45
2023-03-10T22:38:23.457Z,93.32
2023-03-10T22:40:51.074Z,93.55
2023-03-10T22:43:18.746Z,95.90
2023-03-10T22:45:46.687Z,94.73
2023-03-10T22:48:15.648Z,95.32
2023-03-10T22:50:46.585Z,94.79
2023-03-10T22:53:15.925Z,94.67
2023-03-10T22:55:43.773Z,95.82
2023-03-10T22:58:11.968Z,95.10
2023-03-10T23:00:40.336Z,95.87
2023-03-10T23:03:08.961Z,95.89
2023-03-10T23:05:38.095Z,99.79
2023-03-10T23:08:06.970Z,97.31
2023-03-10T23:10:36.757Z,98.48
2023-03-10T23:13:06.851Z,98.78
2023-03-10T23:15:38.401Z,96.24
2023-03-10T23:18:07.301Z,96.84
2023-03-10T23:20:39.449Z,95.37
2023-03-10T23:23:08.575Z,95.61
2023-03-10T23:25:38.398Z,94.85
2023-03-10T23:28:08.508Z,97.76
2023-03-10T23:30:39.162Z,95.75
2023-03-10T23:33:08.246Z,99.78
2023-03-10T23:35:38.352Z,100.00
2023-03-10T23:38:06.648Z,96.62
2023-03-10T23:40:35.853Z,94.68
2023-03-10T23:43:05.818Z,93.18
2023-03-10T23:45:34.152Z,89.81
2023-03-10T23:48:02.675Z,90.10
2023-03-10T23:50:32.789Z,85.77
2023-03-10T23:53:02.479Z,85.56
2023-03-10T23:55:33.005Z,84.36
2023-03-10T23:58:01.472Z,84.54
